createdAt,value
2018-06-24T00:00:29.753Z,0.00
2018-06-24T00:01:29.759Z,0.00
2018-06-24T00:02:29.729Z,0.00
2018-06-24T00:03:29.719Z,0.00
2018-06-24T00:04:29.707Z,0.00
2018-06-24T00:05:29.700Z,0.00
2018-06-24T00:06:29.703Z,0.00
2018-06-24T00:07:29.679Z,0.00
2018-06-24T00:08:29.663Z,0.00
2018-06-24T00:09:29.660Z,0.00
2018-06-24T00:10:29.642Z,0.00
2018-06-24T00:11:29.629Z,0.00
2018-06-24T00:12:29.669Z,0.00
2018-06-24T00:13:29.608Z,0.00
2018-06-24T00:14:29.600Z,0.00
2018-06-24T00:15:29.644Z,0.00
2018-06-24T00:16:29.610Z,0.00
2018-06-24T00:17:29.594Z,0.00
2018-06-24T00:18:29.575Z,0.00
2018-06-24T00:19:29.541Z,0.00
2018-06-24T00:20:29.533Z,0.00
2018-06-24T00:21:29.517Z,0.00
2018-06-24T00:22:29.507Z,0.00
2018-06-24T00:23:29.499Z,0.00
2018-06-24T00:24:29.499Z,0.00
2018-06-24T00:25:29.475Z,0.00
2018-06-24T00:26:29.463Z,0.00
2018-06-24T00:27:29.450Z,0.00
2018-06-24T00:28:29.440Z,0.00
2018-06-24T00:29:29.467Z,0.00
2018-06-24T00:30:29.423Z,0.00
2018-06-24T00:31:29.407Z,0.00
2018-06-24T00:32:29.397Z,0.00
2018-06-24T00:33:29.722Z,0.00
2018-06-24T00:34:29.376Z,0.00
2018-06-24T00:35:30.341Z,0.00
2018-06-24T00:36:29.760Z,0.00
2018-06-24T00:37:29.341Z,0.00
2018-06-24T00:38:29.330Z,0.00
2018-06-24T00:39:29.327Z,0.00
2018-06-24T00:40:29.309Z,0.00
2018-06-24T00:41:29.318Z,0.00
2018-06-24T00:42:29.287Z,0.00
2018-06-24T00:43:29.275Z,0.00
2018-06-24T00:44:29.263Z,0.00
2018-06-24T00:45:29.251Z,0.00
2018-06-24T00:46:29.277Z,0.00
2018-06-24T00:47:29.236Z,0.00
2018-06-24T00:48:29.219Z,0.00
2018-06-24T00:49:29.206Z,0.00
2018-06-24T00:50:29.197Z,0.00
2018-06-24T00:51:29.188Z,0.00
2018-06-24T00:52:29.211Z,0.00
2018-06-24T00:53:29.163Z,0.00
2018-06-24T00:54:29.153Z,0.00
2018-06-24T00:55:29.140Z,0.00
2018-06-24T00:56:29.132Z,0.00
2018-06-24T00:57:29.122Z,0.00
2018-06-24T00:58:29.121Z,0.00
2018-06-24T00:59:29.099Z,0.00
2018-06-24T01:00:29.088Z,0.00
2018-06-24T01:01:29.075Z,0.00
2018-06-24T01:02:29.063Z,0.00
2018-06-24T01:03:29.068Z,0.00
2018-06-24T01:04:29.041Z,0.00
2018-06-24T01:05:29.028Z,0.00
2018-06-24T01:06:29.018Z,0.00
2018-06-24T01:07:29.008Z,0.00
2018-06-24T01:08:28.996Z,0.00
2018-06-24T01:09:29.006Z,0.00
2018-06-24T01:10:28.979Z,0.00
2018-06-24T01:11:28.965Z,0.00
2018-06-24T01:12:28.951Z,0.00
2018-06-24T01:13:28.941Z,0.00
2018-06-24T01:14:28.933Z,0.00
2018-06-24T01:15:28.945Z,0.00
2018-06-24T01:16:28.907Z,0.00
2018-06-24T01:17:28.895Z,0.00
2018-06-24T01:18:28.883Z,0.00
2018-06-24T01:19:28.886Z,0.00
2018-06-24T01:20:28.864Z,0.00
2018-06-24T01:21:28.866Z,0.00
2018-06-24T01:22:28.841Z,0.00
2018-06-24T01:23:28.848Z,0.00
2018-06-24T01:24:28.823Z,0.00
2018-06-24T01:25:28.808Z,0.00
2018-06-24T01:26:28.814Z,0.00
2018-06-24T01:27:28.784Z,0.00
2018-06-24T01:28:28.773Z,0.00
2018-06-24T01:29:28.764Z,0.00
2018-06-24T01:30:28.752Z,0.00
2018-06-24T01:31:28.761Z,0.00
2018-06-24T01:32:28.749Z,0.00
2018-06-24T01:33:28.717Z,0.00
2018-06-24T01:34:28.706Z,0.00
2018-06-24T01:35:28.697Z,0.00
2018-06-24T01:36:28.685Z,0.00
2018-06-24T01:37:28.674Z,0.00
2018-06-24T01:38:28.676Z,0.00
2018-06-24T01:39:28.650Z,0.00
2018-06-24T01:40:28.639Z,0.00
2018-06-24T01:41:28.633Z,0.00
2018-06-24T01:42:28.628Z,0.00
2018-06-24T01:43:28.666Z,0.00
2018-06-24T01:44:28.598Z,0.00
2018-06-24T01:45:28.587Z,0.00
2018-06-24T01:46:28.571Z,0.00
2018-06-24T01:47:28.612Z,0.00
2018-06-24T01:48:28.549Z,0.00
2018-06-24T01:52:54.670Z,0.00
2018-06-24T01:53:54.659Z,0.00
2018-06-24T01:54:54.647Z,0.00
2018-06-24T01:55:54.652Z,0.00
2018-06-24T01:56:54.625Z,0.00
2018-06-24T01:57:54.614Z,0.00
2018-06-24T01:58:54.605Z,0.00
2018-06-24T01:59:54.593Z,0.00
2018-06-24T02:00:54.581Z,0.00
2018-06-24T02:01:54.596Z,0.00
2018-06-24T02:02:54.557Z,0.00
2018-06-24T02:03:54.545Z,0.00
2018-06-24T02:04:54.535Z,0.00
2018-06-24T02:05:54.525Z,0.00
2018-06-24T02:06:54.513Z,0.00
2018-06-24T02:07:54.522Z,0.00
2018-06-24T02:08:54.493Z,0.00
2018-06-24T02:09:54.483Z,0.00
2018-06-24T02:10:54.470Z,0.00
2018-06-24T02:11:54.461Z,0.00
2018-06-24T02:12:54.471Z,0.00
2018-06-24T02:13:54.435Z,0.00
2018-06-24T02:14:54.431Z,0.00
2018-06-24T02:15:54.416Z,0.00
2018-06-24T02:16:54.401Z,0.00
2018-06-24T02:17:54.390Z,0.00
2018-06-24T02:18:54.408Z,0.00
2018-06-24T02:19:54.375Z,0.00
2018-06-24T02:20:54.358Z,0.00
2018-06-24T02:21:54.350Z,0.00
2018-06-24T02:22:54.335Z,0.00
2018-06-24T02:23:54.326Z,0.00
2018-06-24T02:24:54.326Z,0.00
2018-06-24T02:25:54.306Z,0.00
2018-06-24T02:26:54.290Z,0.00
2018-06-24T02:27:54.282Z,0.00
2018-06-24T02:28:54.274Z,0.00
2018-06-24T02:29:54.294Z,0.00
2018-06-24T02:30:54.248Z,0.00
2018-06-24T02:31:54.237Z,0.00
2018-06-24T02:32:54.224Z,0.00
2018-06-24T02:33:54.213Z,0.00
2018-06-24T02:34:54.200Z,0.00
2018-06-24T02:35:54.210Z,0.00
2018-06-24T02:36:54.180Z,0.00
2018-06-24T02:37:54.168Z,0.00
2018-06-24T02:38:54.157Z,0.00
2018-06-24T02:39:54.149Z,0.00
2018-06-24T02:40:54.135Z,0.00
2018-06-24T02:41:54.137Z,0.00
2018-06-24T02:42:54.113Z,0.00
2018-06-24T02:43:54.115Z,0.00
2018-06-24T02:44:54.090Z,0.00
2018-06-24T02:45:54.080Z,0.00
2018-06-24T02:46:54.068Z,0.00
2018-06-24T02:47:54.076Z,4.00
2018-06-24T02:48:54.046Z,4.00
2018-06-24T02:49:54.035Z,4.00
2018-06-24T02:50:54.026Z,0.00
2018-06-24T02:51:54.012Z,4.00
2018-06-24T02:52:54.019Z,4.00
2018-06-24T02:53:53.991Z,4.00
2018-06-24T02:54:53.979Z,4.00
2018-06-24T02:55:53.968Z,8.00
2018-06-24T02:56:53.956Z,4.00
2018-06-24T02:57:53.944Z,8.00
2018-06-24T02:58:53.952Z,8.00
2018-06-24T02:59:53.923Z,8.00
2018-06-24T03:00:53.913Z,12.00
2018-06-24T03:01:53.900Z,16.00
2018-06-24T03:02:53.890Z,16.00
2018-06-24T03:03:53.883Z,20.00
2018-06-24T03:04:53.894Z,20.00
2018-06-24T03:05:53.859Z,24.00
2018-06-24T03:06:53.844Z,28.00
2018-06-24T03:07:53.835Z,28.00
2018-06-24T03:08:53.834Z,32.00
2018-06-24T03:09:53.832Z,36.00
2018-06-24T03:10:53.804Z,36.00
2018-06-24T03:11:53.790Z,44.00
2018-06-24T03:14:28.557Z,60.00
2018-06-24T03:15:02.496Z,64.00
2018-06-24T03:16:02.487Z,72.00
2018-06-24T03:17:02.469Z,80.00
2018-06-24T03:18:02.452Z,88.00
2018-06-24T03:19:02.441Z,96.00
2018-06-24T03:20:02.429Z,108.00
2018-06-24T03:21:02.435Z,120.00
2018-06-24T03:22:02.410Z,128.00
2018-06-24T03:23:02.395Z,140.00
2018-06-24T03:24:02.385Z,148.00
2018-06-24T03:25:02.374Z,164.00
2018-06-24T03:26:02.378Z,172.00
2018-06-24T03:27:02.358Z,184.00
2018-06-24T03:28:02.341Z,196.00
2018-06-24T03:29:02.335Z,208.00
2018-06-24T03:30:02.318Z,220.00
2018-06-24T03:31:02.315Z,236.00
2018-06-24T03:32:02.336Z,248.00
2018-06-24T03:33:02.284Z,256.00
2018-06-24T03:34:02.274Z,268.00
2018-06-24T03:35:02.262Z,280.00
2018-06-24T03:36:02.255Z,292.00
2018-06-24T03:37:02.240Z,308.00
2018-06-24T03:38:02.242Z,320.00
2018-06-24T03:39:02.218Z,336.00
2018-06-24T03:40:02.206Z,348.00
2018-06-24T03:41:02.196Z,364.00
2018-06-24T03:42:02.185Z,388.00
2018-06-24T03:43:02.194Z,404.00
2018-06-24T03:44:02.161Z,428.00
2018-06-24T03:45:02.161Z,460.00
2018-06-24T03:46:02.139Z,496.00
2018-06-24T03:47:02.135Z,528.00
2018-06-24T03:48:02.118Z,552.00
2018-06-24T03:49:02.122Z,572.00
2018-06-24T03:50:02.098Z,588.00
2018-06-24T03:51:02.086Z,604.00
2018-06-24T03:52:02.076Z,612.00
2018-06-24T03:53:02.070Z,612.00
2018-06-24T03:54:02.069Z,616.00
2018-06-24T03:55:02.041Z,612.00
2018-06-24T03:56:02.029Z,616.00
2018-06-24T03:57:02.018Z,612.00
2018-06-24T03:58:02.049Z,608.00
2018-06-24T03:59:01.996Z,600.00
2018-06-24T04:00:01.995Z,600.00
2018-06-24T04:01:01.973Z,596.00
2018-06-24T04:02:01.961Z,600.00
2018-06-24T04:03:01.958Z,612.00
2018-06-24T04:04:01.939Z,632.00
2018-06-24T04:05:01.943Z,660.00
2018-06-24T04:06:01.918Z,684.00
2018-06-24T04:07:01.907Z,720.00
2018-06-24T04:08:01.896Z,740.00
2018-06-24T04:09:01.885Z,752.00
2018-06-24T04:10:01.890Z,768.00
2018-06-24T04:11:01.863Z,816.00
2018-06-24T04:12:01.851Z,884.00
2018-06-24T04:13:01.838Z,1000.00
2018-06-24T04:14:01.834Z,1156.00
2018-06-24T04:15:01.821Z,1300.00
2018-06-24T04:16:01.818Z,1428.00
2018-06-24T04:17:01.794Z,1556.00
2018-06-24T04:18:01.783Z,1656.00
2018-06-24T04:19:01.772Z,1696.00
2018-06-24T04:20:01.760Z,1708.00
2018-06-24T04:21:01.769Z,1668.00
2018-06-24T04:22:01.738Z,1560.00
2018-06-24T04:23:01.731Z,1432.00
2018-06-24T04:24:01.717Z,1304.00
2018-06-24T04:25:01.707Z,1208.00
2018-06-24T04:26:01.696Z,1156.00
2018-06-24T04:27:01.695Z,1144.00
2018-06-24T04:28:01.674Z,1164.00
2018-06-24T04:29:01.665Z,1196.00
2018-06-24T04:30:01.651Z,1240.00
2018-06-24T04:31:01.642Z,1292.00
2018-06-24T04:32:01.639Z,1348.00
2018-06-24T04:33:01.615Z,1400.00
2018-06-24T04:34:01.610Z,1448.00
2018-06-24T04:35:01.594Z,1496.00
2018-06-24T04:36:01.582Z,1540.00
2018-06-24T04:37:01.587Z,1560.00
2018-06-24T04:38:01.560Z,1612.00
2018-06-24T04:39:01.550Z,1664.00
2018-06-24T04:40:01.541Z,1724.00
2018-06-24T04:41:01.527Z,1824.00
2018-06-24T04:42:01.533Z,1956.00
2018-06-24T04:43:01.504Z,2164.00
2018-06-24T04:44:01.497Z,2352.00
2018-06-24T04:45:01.482Z,2484.00
2018-06-24T04:46:01.481Z,2476.00
2018-06-24T04:47:01.467Z,2356.00
2018-06-24T04:48:01.465Z,2240.00
2018-06-24T04:49:01.439Z,2180.00
2018-06-24T04:50:01.426Z,2152.00
2018-06-24T04:51:01.418Z,2148.00
2018-06-24T04:52:01.410Z,2140.00
2018-06-24T04:53:01.425Z,2140.00
2018-06-24T04:54:01.385Z,2160.00
2018-06-24T04:55:01.373Z,2160.00
2018-06-24T04:56:01.360Z,2132.00
2018-06-24T04:57:01.386Z,2156.00
2018-06-24T04:58:01.344Z,2060.00
2018-06-24T04:59:01.340Z,1976.00
2018-06-24T05:00:01.318Z,1976.00
2018-06-24T05:01:01.317Z,2064.00
2018-06-24T05:02:01.297Z,2220.00
2018-06-24T05:03:01.286Z,2420.00
2018-06-24T05:04:01.286Z,2620.00
2018-06-24T05:05:01.267Z,2832.00
2018-06-24T05:06:01.258Z,3032.00
2018-06-24T05:07:01.247Z,3232.00
2018-06-24T05:08:01.232Z,3404.00
2018-06-24T05:09:01.231Z,3620.00
2018-06-24T05:10:01.213Z,3904.00
2018-06-24T05:11:01.201Z,4208.00
2018-06-24T05:12:01.191Z,4308.00
2018-06-24T05:13:01.178Z,4860.00
2018-06-24T05:14:01.165Z,5924.00
2018-06-24T05:15:01.172Z,6416.00
2018-06-24T05:16:01.156Z,5604.00
2018-06-24T05:17:01.135Z,5516.00
2018-06-24T05:18:01.123Z,5596.00
2018-06-24T05:19:01.114Z,5748.00
2018-06-24T05:20:01.101Z,6004.00
2018-06-24T05:21:01.103Z,5896.00
2018-06-24T05:22:01.085Z,6416.00
2018-06-24T05:23:01.068Z,7064.00
2018-06-24T05:24:01.057Z,8016.00
2018-06-24T05:25:01.045Z,8876.00
2018-06-24T05:26:01.046Z,10008.00
2018-06-24T05:27:01.021Z,7992.00
2018-06-24T05:28:01.009Z,7696.00
2018-06-24T05:29:01.000Z,6992.00
2018-06-24T05:30:00.989Z,6804.00
2018-06-24T05:31:01.012Z,6876.00
2018-06-24T05:32:00.967Z,6988.00
2018-06-24T05:33:00.953Z,7532.00
2018-06-24T05:34:00.950Z,8212.00
2018-06-24T05:35:00.933Z,6968.00
2018-06-24T05:36:00.971Z,5964.00
2018-06-24T05:37:00.934Z,6176.00
2018-06-24T05:38:00.905Z,6576.00
2018-06-24T05:39:00.891Z,7376.00
2018-06-24T05:40:00.894Z,7600.00
2018-06-24T05:41:00.939Z,7100.00
2018-06-24T05:42:00.909Z,5692.00
2018-06-24T05:43:00.924Z,5108.00
2018-06-24T05:44:00.839Z,4764.00
2018-06-24T05:45:00.838Z,4816.00
2018-06-24T05:46:00.829Z,5132.00
2018-06-24T05:47:00.817Z,5708.00
2018-06-24T05:48:00.791Z,6276.00
2018-06-24T05:49:00.783Z,6608.00
2018-06-24T05:50:00.769Z,6788.00
2018-06-24T05:51:00.757Z,6740.00
2018-06-24T05:52:00.761Z,6772.00
2018-06-24T05:53:00.736Z,6944.00
2018-06-24T05:54:00.727Z,7168.00
2018-06-24T05:55:00.715Z,7684.00
2018-06-24T05:56:00.703Z,7920.00
2018-06-24T05:57:00.712Z,9396.00
2018-06-24T05:58:00.685Z,7760.00
2018-06-24T05:59:00.705Z,6760.00
2018-06-24T06:00:00.710Z,6080.00
2018-06-24T06:01:00.658Z,5752.00
2018-06-24T06:02:00.642Z,5644.00
2018-06-24T06:03:00.702Z,5688.00
2018-06-24T06:04:00.616Z,5752.00
2018-06-24T06:05:00.609Z,5820.00
2018-06-24T06:06:00.594Z,5932.00
2018-06-24T06:07:00.585Z,6136.00
2018-06-24T06:08:00.586Z,6276.00
2018-06-24T06:09:00.561Z,6548.00
2018-06-24T06:10:00.615Z,6420.00
2018-06-24T06:11:00.539Z,7128.00
2018-06-24T06:12:00.528Z,7508.00
2018-06-24T06:13:00.534Z,7132.00
2018-06-24T06:14:00.509Z,6944.00
2018-06-24T06:15:00.497Z,7108.00
2018-06-24T06:16:00.518Z,7204.00
2018-06-24T06:17:00.474Z,7112.00
2018-06-24T06:18:00.468Z,7088.00
2018-06-24T06:19:00.465Z,7448.00
2018-06-24T06:20:00.446Z,8332.00
2018-06-24T06:21:00.430Z,8948.00
2018-06-24T06:22:00.419Z,9804.00
2018-06-24T06:23:00.410Z,10916.00
2018-06-24T06:24:00.430Z,10728.00
2018-06-24T06:25:00.388Z,11352.00
2018-06-24T06:26:00.375Z,10108.00
2018-06-24T06:27:00.364Z,9400.00
2018-06-24T06:28:00.353Z,9424.00
2018-06-24T06:29:00.342Z,10176.00
2018-06-24T06:30:00.343Z,8972.00
2018-06-24T06:31:00.319Z,7824.00
2018-06-24T06:32:00.311Z,7716.00
2018-06-24T06:33:00.298Z,8768.00
2018-06-24T06:34:00.287Z,9584.00
2018-06-24T06:35:00.306Z,10380.00
2018-06-24T06:36:00.265Z,10324.00
2018-06-24T06:37:00.256Z,9708.00
2018-06-24T06:38:00.255Z,8900.00
2018-06-24T06:39:00.233Z,9080.00
2018-06-24T06:40:00.220Z,8764.00
2018-06-24T06:41:00.227Z,9064.00
2018-06-24T06:42:00.199Z,9176.00
2018-06-24T06:43:00.188Z,9644.00
2018-06-24T06:44:00.176Z,9944.00
2018-06-24T06:45:00.291Z,10548.00
2018-06-24T06:46:00.172Z,10608.00
2018-06-24T06:47:00.145Z,11028.00
2018-06-24T06:48:00.132Z,11656.00
2018-06-24T06:49:00.154Z,12188.00
2018-06-24T06:50:00.112Z,13800.00
2018-06-24T06:51:00.118Z,17056.00
2018-06-24T06:52:00.106Z,27840.00
2018-06-24T06:53:00.080Z,18976.00
2018-06-24T06:54:00.070Z,16448.00
2018-06-24T06:55:00.058Z,16288.00
2018-06-24T06:56:00.047Z,19776.00
2018-06-24T06:57:00.069Z,40704.00
2018-06-24T06:58:00.036Z,22528.00
2018-06-24T06:59:00.065Z,53888.00
2018-06-24T07:00:00.013Z,24352.00
2018-06-24T07:00:59.991Z,40160.00
2018-06-24T07:01:59.979Z,25600.00
2018-06-24T07:02:59.987Z,45024.00
2018-06-24T07:03:59.963Z,55136.00
2018-06-24T07:04:59.947Z,42112.00
2018-06-24T07:05:59.939Z,34240.00
2018-06-24T07:06:59.928Z,47520.00
2018-06-24T07:07:59.928Z,46688.00
2018-06-24T07:08:59.926Z,32608.00
2018-06-24T07:09:59.895Z,22784.00
2018-06-24T07:10:59.957Z,16064.00
2018-06-24T07:11:59.870Z,15456.00
2018-06-24T07:12:59.925Z,16320.00
2018-06-24T07:13:59.850Z,15168.00
2018-06-24T07:14:59.838Z,13256.00
2018-06-24T07:15:59.828Z,14072.00
2018-06-24T07:16:59.815Z,14528.00
2018-06-24T07:17:59.802Z,16864.00
2018-06-24T07:18:59.804Z,20480.00
2018-06-24T07:19:59.780Z,19968.00
2018-06-24T07:20:59.774Z,34912.00
2018-06-24T07:21:59.769Z,22528.00
2018-06-24T07:22:59.749Z,20256.00
2018-06-24T07:23:59.862Z,25216.00
2018-06-24T07:24:59.898Z,22528.00
2018-06-24T07:25:59.717Z,19104.00
2018-06-24T07:26:59.720Z,29344.00
2018-06-24T07:27:59.693Z,35936.00
2018-06-24T07:28:59.678Z,31296.00
2018-06-24T07:29:59.682Z,22944.00
2018-06-24T07:30:59.660Z,20096.00
2018-06-24T07:31:59.650Z,21024.00
2018-06-24T07:32:59.636Z,26656.00
2018-06-24T07:33:59.625Z,41920.00
2018-06-24T07:34:59.627Z,25216.00
2018-06-24T07:35:59.610Z,22336.00
2018-06-24T07:36:59.610Z,18048.00
2018-06-24T07:37:59.585Z,16032.00
2018-06-24T07:38:59.570Z,16736.00
2018-06-24T07:39:59.600Z,17792.00
2018-06-24T07:40:59.551Z,16288.00
2018-06-24T07:41:59.539Z,25440.00
2018-06-24T07:42:59.540Z,22208.00
2018-06-24T07:43:59.537Z,24224.00
2018-06-24T07:44:59.515Z,31872.00
2018-06-24T07:45:59.514Z,34912.00
2018-06-24T07:46:59.485Z,20128.00
2018-06-24T07:47:59.489Z,19168.00
2018-06-24T07:48:59.468Z,20736.00
2018-06-24T07:49:59.475Z,16736.00
2018-06-24T07:50:59.447Z,14336.00
2018-06-24T07:51:59.437Z,13760.00
2018-06-24T07:52:59.421Z,12432.00
2018-06-24T07:53:59.413Z,12004.00
2018-06-24T07:54:59.409Z,11896.00
2018-06-24T07:55:59.417Z,11232.00
2018-06-24T07:56:59.377Z,11200.00
2018-06-24T07:57:59.366Z,10744.00
2018-06-24T07:58:59.357Z,10004.00
2018-06-24T07:59:59.377Z,9472.00
2018-06-24T08:00:59.333Z,9064.00
2018-06-24T08:01:59.333Z,9672.00
2018-06-24T08:02:59.364Z,10196.00
2018-06-24T08:03:59.305Z,12984.00
2018-06-24T08:04:59.290Z,11152.00
2018-06-24T08:05:59.686Z,12628.00
2018-06-24T08:06:59.284Z,13664.00
2018-06-24T08:07:59.281Z,14496.00
2018-06-24T08:08:59.248Z,14624.00
2018-06-24T08:09:59.236Z,19360.00
2018-06-24T08:10:59.235Z,17440.00
2018-06-24T08:11:59.233Z,21152.00
2018-06-24T08:12:59.205Z,15744.00
2018-06-24T08:13:59.194Z,13172.00
2018-06-24T08:14:59.181Z,13188.00
2018-06-24T08:15:59.184Z,13380.00
2018-06-24T08:16:59.176Z,14656.00
2018-06-24T08:17:59.146Z,16096.00
2018-06-24T08:18:59.176Z,15552.00
2018-06-24T08:19:59.146Z,16032.00
2018-06-24T08:20:59.122Z,18656.00
2018-06-24T08:21:59.103Z,23168.00
2018-06-24T08:22:59.195Z,23456.00
2018-06-24T08:23:59.087Z,20640.00
2018-06-24T08:24:59.073Z,20896.00
2018-06-24T08:25:59.061Z,21248.00
2018-06-24T08:26:59.050Z,33632.00
2018-06-24T08:27:59.050Z,22784.00
2018-06-24T08:28:59.028Z,27296.00
2018-06-24T08:29:59.019Z,17088.00
2018-06-24T08:30:59.016Z,16256.00
2018-06-24T08:31:58.995Z,15584.00
2018-06-24T08:32:58.995Z,15072.00
2018-06-24T08:33:58.972Z,16448.00
2018-06-24T08:34:58.962Z,13820.00
2018-06-24T08:35:58.971Z,12540.00
2018-06-24T08:36:58.940Z,13576.00
2018-06-24T08:37:58.942Z,14656.00
2018-06-24T08:38:58.955Z,13208.00
2018-06-24T08:39:58.908Z,12912.00
2018-06-24T08:40:58.900Z,12216.00
2018-06-24T08:41:58.902Z,11896.00
2018-06-24T08:42:58.894Z,12468.00
2018-06-24T08:43:58.867Z,13676.00
2018-06-24T08:44:58.854Z,17344.00
2018-06-24T08:45:58.844Z,13968.00
2018-06-24T08:46:58.833Z,12752.00
2018-06-24T08:47:58.838Z,15264.00
2018-06-24T08:48:58.819Z,18304.00
2018-06-24T08:49:58.801Z,18624.00
2018-06-24T08:50:58.790Z,16576.00
2018-06-24T08:51:58.780Z,11812.00
2018-06-24T08:52:58.781Z,10920.00
2018-06-24T08:53:58.943Z,11128.00
2018-06-24T08:54:58.764Z,11456.00
2018-06-24T08:55:58.735Z,11820.00
2018-06-24T08:56:58.728Z,12116.00
2018-06-24T08:57:59.882Z,14116.00
2018-06-24T08:58:59.127Z,16288.00
2018-06-24T08:59:58.692Z,18080.00
2018-06-24T09:00:58.688Z,19040.00
2018-06-24T09:01:58.687Z,18624.00
2018-06-24T09:02:58.766Z,17216.00
2018-06-24T09:03:58.666Z,17888.00
2018-06-24T09:04:58.691Z,15840.00
2018-06-24T09:05:58.845Z,13388.00
2018-06-24T09:06:58.624Z,11368.00
2018-06-24T09:07:58.704Z,10184.00
2018-06-24T09:08:58.680Z,10084.00
2018-06-24T09:09:58.644Z,10776.00
2018-06-24T09:10:58.576Z,11348.00
2018-06-24T09:11:58.634Z,12072.00
2018-06-24T09:12:58.605Z,12924.00
2018-06-24T09:13:58.579Z,14880.00
2018-06-24T09:14:58.533Z,16704.00
2018-06-24T09:15:58.629Z,15680.00
2018-06-24T09:16:58.528Z,17568.00
2018-06-24T09:17:58.533Z,20160.00
2018-06-24T09:18:58.490Z,14880.00
2018-06-24T09:19:58.480Z,13692.00
2018-06-24T09:20:58.562Z,13980.00
2018-06-24T09:21:58.778Z,12408.00
2018-06-24T09:22:58.447Z,12604.00
2018-06-24T09:23:58.489Z,12852.00
2018-06-24T09:24:58.454Z,12960.00
2018-06-24T09:25:58.469Z,12460.00
2018-06-24T09:26:58.432Z,11988.00
2018-06-24T09:27:58.388Z,11952.00
2018-06-24T09:28:58.386Z,12700.00
2018-06-24T09:29:58.358Z,13396.00
2018-06-24T09:30:58.346Z,14160.00
2018-06-24T09:31:58.338Z,15072.00
2018-06-24T09:32:58.331Z,16192.00
2018-06-24T09:33:58.337Z,18784.00
2018-06-24T09:34:58.304Z,21632.00
2018-06-24T09:35:58.293Z,20864.00
2018-06-24T09:36:58.283Z,22048.00
2018-06-24T09:37:58.270Z,30784.00
2018-06-24T09:38:58.274Z,36544.00
2018-06-24T09:39:58.253Z,38720.00
2018-06-24T09:40:58.264Z,34464.00
2018-06-24T09:41:58.227Z,32864.00
2018-06-24T09:42:58.216Z,26400.00
2018-06-24T09:43:58.217Z,19552.00
2018-06-24T09:44:58.194Z,17440.00
2018-06-24T09:45:58.190Z,16480.00
2018-06-24T09:46:58.342Z,17376.00
2018-06-24T09:47:58.161Z,22080.00
2018-06-24T09:48:58.173Z,39648.00
2018-06-24T09:49:58.146Z,34016.00
2018-06-24T09:50:58.129Z,31136.00
2018-06-24T09:51:58.134Z,29504.00
2018-06-24T09:52:58.123Z,35744.00
2018-06-24T09:53:58.106Z,50272.00
2018-06-24T09:54:58.085Z,42688.00
2018-06-24T09:55:58.071Z,23680.00
2018-06-24T09:56:58.059Z,20480.00
2018-06-24T09:57:58.060Z,22048.00
2018-06-24T09:58:58.062Z,26368.00
2018-06-24T09:59:58.029Z,19168.00
2018-06-24T10:00:58.020Z,18272.00
2018-06-24T10:01:58.010Z,18496.00
2018-06-24T10:02:57.999Z,19776.00
2018-06-24T10:03:57.989Z,19168.00
2018-06-24T10:04:57.991Z,17952.00
2018-06-24T10:05:57.968Z,16640.00
2018-06-24T10:06:57.953Z,15296.00
2018-06-24T10:07:57.943Z,13940.00
2018-06-24T10:08:57.930Z,17088.00
2018-06-24T10:09:57.936Z,19808.00
2018-06-24T10:10:57.950Z,18048.00
2018-06-24T10:11:57.910Z,17536.00
2018-06-24T10:12:58.035Z,20608.00
2018-06-24T10:13:57.885Z,19424.00
2018-06-24T10:14:57.863Z,16416.00
2018-06-24T10:15:57.870Z,21888.00
2018-06-24T10:16:57.857Z,12816.00
2018-06-24T10:17:57.903Z,12640.00
2018-06-24T10:18:57.824Z,12760.00
2018-06-24T10:19:57.808Z,13292.00
2018-06-24T10:20:57.834Z,12824.00
2018-06-24T10:21:57.796Z,12412.00
2018-06-24T10:22:57.775Z,35072.00
2018-06-24T10:23:57.763Z,35264.00
2018-06-24T10:24:57.756Z,54560.00
2018-06-24T10:25:57.796Z,48192.00
2018-06-24T10:26:57.733Z,30496.00
2018-06-24T10:27:57.839Z,18304.00
2018-06-24T10:28:57.788Z,16896.00
2018-06-24T10:29:57.703Z,14912.00
2018-06-24T10:30:57.702Z,13252.00
2018-06-24T10:31:57.678Z,12636.00
2018-06-24T10:32:57.665Z,12904.00
2018-06-24T10:33:57.659Z,16992.00
2018-06-24T10:34:57.661Z,31168.00
2018-06-24T10:35:57.651Z,26304.00
2018-06-24T10:36:57.628Z,30432.00
2018-06-24T10:37:57.612Z,29536.00
2018-06-24T10:38:57.603Z,28352.00
2018-06-24T10:39:57.591Z,33632.00
2018-06-24T10:40:57.593Z,26560.00
2018-06-24T10:41:57.577Z,34976.00
2018-06-24T10:42:57.565Z,31200.00
2018-06-24T10:43:57.549Z,42944.00
2018-06-24T10:44:57.535Z,43456.00
2018-06-24T10:45:57.538Z,46816.00
2018-06-24T10:46:57.521Z,54432.00
2018-06-24T10:47:57.506Z,64704.00
2018-06-24T10:48:57.495Z,58592.00
2018-06-24T10:49:57.484Z,21472.00
2018-06-24T10:50:57.492Z,26720.00
2018-06-24T10:51:57.464Z,72576.00
2018-06-24T10:52:57.569Z,76000.00
2018-06-24T10:53:57.438Z,52384.00
2018-06-24T10:54:57.431Z,62496.00
2018-06-24T10:55:57.430Z,26048.00
2018-06-24T10:56:57.408Z,22784.00
2018-06-24T10:57:57.400Z,18816.00
2018-06-24T10:58:57.396Z,15616.00
2018-06-24T10:59:57.376Z,19776.00
2018-06-24T11:00:57.376Z,43104.00
2018-06-24T11:01:57.384Z,57856.00
2018-06-24T11:02:57.345Z,74656.00
2018-06-24T11:03:57.342Z,62784.00
2018-06-24T11:04:57.323Z,74816.00
2018-06-24T11:05:57.367Z,75712.00
2018-06-24T11:06:57.315Z,30688.00
2018-06-24T11:07:57.291Z,51200.00
2018-06-24T11:08:57.282Z,63520.00
2018-06-24T11:09:57.288Z,21856.00
2018-06-24T11:10:57.260Z,14236.00
2018-06-24T11:11:57.269Z,12736.00
2018-06-24T11:12:57.287Z,12168.00
2018-06-24T11:13:57.229Z,49760.00
2018-06-24T11:14:57.246Z,17024.00
2018-06-24T11:15:57.209Z,26112.00
2018-06-24T11:16:57.228Z,31968.00
2018-06-24T11:17:57.187Z,27904.00
2018-06-24T11:18:57.178Z,21600.00
2018-06-24T11:19:57.167Z,17856.00
2018-06-24T11:20:57.155Z,58400.00
2018-06-24T11:21:57.182Z,64416.00
2018-06-24T11:22:57.134Z,50048.00
2018-06-24T11:23:57.123Z,21984.00
2018-06-24T11:24:57.115Z,20480.00
2018-06-24T11:25:57.101Z,18208.00
2018-06-24T11:26:57.114Z,15744.00
2018-06-24T11:27:57.082Z,13444.00
2018-06-24T11:28:57.107Z,11368.00
2018-06-24T11:29:57.058Z,10888.00
2018-06-24T11:30:57.082Z,10732.00
2018-06-24T11:31:57.052Z,10856.00
2018-06-24T11:32:57.036Z,12596.00
2018-06-24T11:33:57.021Z,43040.00
2018-06-24T11:34:57.004Z,50720.00
2018-06-24T11:35:56.998Z,39968.00
2018-06-24T11:36:57.036Z,28096.00
2018-06-24T11:37:56.975Z,39776.00
2018-06-24T11:38:56.960Z,20128.00
2018-06-24T11:39:56.954Z,16672.00
2018-06-24T11:40:56.941Z,15776.00
2018-06-24T11:41:56.941Z,15616.00
2018-06-24T11:42:56.927Z,15360.00
2018-06-24T11:43:56.906Z,13360.00
2018-06-24T11:44:56.951Z,11060.00
2018-06-24T11:45:56.885Z,10316.00
2018-06-24T11:46:56.914Z,9588.00
2018-06-24T11:47:56.877Z,9476.00
2018-06-24T11:48:56.853Z,9656.00
2018-06-24T11:49:56.856Z,9520.00
2018-06-24T11:50:56.834Z,10012.00
2018-06-24T11:51:56.819Z,12140.00
2018-06-24T11:52:56.824Z,13992.00
2018-06-24T11:53:56.799Z,15136.00
2018-06-24T11:54:56.814Z,16896.00
2018-06-24T11:55:56.783Z,18368.00
2018-06-24T11:56:56.802Z,16064.00
2018-06-24T11:57:56.788Z,13656.00
2018-06-24T11:58:56.767Z,12556.00
2018-06-24T11:59:56.733Z,12000.00
2018-06-24T12:00:56.727Z,11824.00
2018-06-24T12:01:56.767Z,11692.00
2018-06-24T12:02:56.701Z,11160.00
2018-06-24T12:03:56.702Z,11156.00
2018-06-24T12:04:56.678Z,14588.00
2018-06-24T12:05:56.671Z,17792.00
2018-06-24T12:06:56.716Z,18880.00
2018-06-24T12:07:56.650Z,19680.00
2018-06-24T12:08:56.748Z,20704.00
2018-06-24T12:09:56.622Z,20448.00
2018-06-24T12:10:56.610Z,20160.00
2018-06-24T12:11:56.604Z,18752.00
2018-06-24T12:12:56.603Z,17408.00
2018-06-24T12:13:56.590Z,15616.00
2018-06-24T12:14:56.570Z,13936.00
2018-06-24T12:15:56.565Z,12416.00
2018-06-24T12:16:56.545Z,11752.00
2018-06-24T12:17:56.535Z,14580.00
2018-06-24T12:18:56.541Z,16800.00